createdAt,value
2019-05-20T00:00:24.704Z,12.96
2019-05-20T00:02:51.947Z,12.88
2019-05-20T00:05:19.226Z,12.84
2019-05-20T00:07:46.455Z,12.78
2019-05-20T00:10:13.850Z,12.78
2019-05-20T00:12:41.168Z,12.65
2019-05-20T00:15:08.677Z,12.49
2019-05-20T00:17:36.145Z,12.30
2019-05-20T00:20:04.179Z,12.19
2019-05-20T00:22:31.459Z,12.19
2019-05-20T00:24:58.903Z,12.15
2019-05-20T00:27:26.563Z,12.14
2019-05-20T00:29:54.016Z,12.21
2019-05-20T00:32:21.537Z,12.25
2019-05-20T00:34:48.970Z,12.20
2019-05-20T00:37:16.395Z,12.08
2019-05-20T00:39:43.653Z,11.99
2019-05-20T00:42:10.913Z,11.83
2019-05-20T00:44:38.723Z,12.01
2019-05-20T00:47:06.015Z,11.75
2019-05-20T00:49:33.430Z,11.84
2019-05-20T00:52:00.721Z,11.77
2019-05-20T00:54:28.082Z,11.78
2019-05-20T00:56:55.465Z,11.68
2019-05-20T00:59:22.761Z,11.65
2019-05-20T01:01:50.035Z,11.79
2019-05-20T01:04:18.388Z,11.83
2019-05-20T01:06:45.724Z,11.88
2019-05-20T01:09:12.986Z,11.85
2019-05-20T01:11:40.599Z,11.85
2019-05-20T01:14:07.903Z,11.70
2019-05-20T01:16:35.512Z,11.63
2019-05-20T01:19:02.846Z,11.63
2019-05-20T01:21:30.266Z,11.62
2019-05-20T01:23:58.703Z,11.74
2019-05-20T01:26:26.191Z,11.80
2019-05-20T01:28:53.619Z,11.72
2019-05-20T01:31:20.958Z,11.78
2019-05-20T01:33:48.294Z,11.67
2019-05-20T01:36:15.679Z,11.57
2019-05-20T01:38:43.069Z,11.58
2019-05-20T01:41:10.492Z,11.56
2019-05-20T01:43:37.847Z,11.57
2019-05-20T01:46:05.196Z,11.61
2019-05-20T01:48:32.564Z,11.52
2019-05-20T01:50:59.934Z,11.55
2019-05-20T01:53:27.205Z,11.37
2019-05-20T01:55:54.598Z,11.34
2019-05-20T01:58:21.972Z,11.40
2019-05-20T02:00:49.240Z,11.29
2019-05-20T02:03:30.431Z,11.43
2019-05-20T02:05:45.795Z,11.28
2019-05-20T02:08:13.218Z,11.38
2019-05-20T02:10:40.565Z,11.20
2019-05-20T02:13:07.831Z,11.28
2019-05-20T02:15:54.681Z,11.39
2019-05-20T02:18:21.990Z,11.35
2019-05-20T02:20:49.517Z,11.30
2019-05-20T02:23:16.867Z,11.25
2019-05-20T02:25:46.677Z,11.35
2019-05-20T02:28:14.246Z,11.27
2019-05-20T02:30:41.494Z,11.14
2019-05-20T02:33:09.437Z,11.08
2019-05-20T02:35:36.817Z,11.02
2019-05-20T02:38:04.184Z,11.06
2019-05-20T02:40:32.547Z,11.08
2019-05-20T02:42:59.862Z,11.11
2019-05-20T02:45:27.128Z,11.08
2019-05-20T02:47:54.424Z,11.09
2019-05-20T02:50:21.676Z,11.12
2019-05-20T02:52:48.984Z,10.97
2019-05-20T02:55:16.264Z,10.84
2019-05-20T02:57:43.676Z,10.85
2019-05-20T03:00:11.086Z,10.86
2019-05-20T03:02:38.818Z,10.71
2019-05-20T03:05:06.330Z,10.73
2019-05-20T03:07:33.558Z,10.73
2019-05-20T03:10:00.894Z,10.62
2019-05-20T03:12:29.536Z,10.41
2019-05-20T03:14:56.835Z,10.52
2019-05-20T03:17:24.186Z,10.66
2019-05-20T03:19:51.466Z,10.68
2019-05-20T03:22:18.715Z,10.77
2019-05-20T03:24:45.932Z,10.79
2019-05-20T03:27:13.226Z,10.89
2019-05-20T03:29:40.461Z,10.91
2019-05-20T03:32:07.797Z,11.05
2019-05-20T03:34:50.829Z,11.21
2019-05-20T03:37:04.287Z,11.45
2019-05-20T03:39:31.673Z,11.49
2019-05-20T03:41:58.938Z,11.61
2019-05-20T03:44:26.235Z,11.69
2019-05-20T03:46:54.624Z,11.73
2019-05-20T03:49:21.962Z,11.80
2019-05-20T03:51:52.365Z,11.79
2019-05-20T03:54:18.417Z,11.89
2019-05-20T03:56:46.664Z,12.06
2019-05-20T03:59:13.927Z,11.81
2019-05-20T04:01:41.193Z,11.77
2019-05-20T04:04:08.480Z,11.79
2019-05-20T04:06:35.738Z,11.94
2019-05-20T04:09:04.306Z,12.02
2019-05-20T04:11:31.674Z,12.04
2019-05-20T04:13:58.931Z,12.14
2019-05-20T04:16:26.199Z,12.21
2019-05-20T04:18:54.408Z,12.20
2019-05-20T04:21:21.821Z,12.17
2019-05-20T04:23:49.177Z,12.19
2019-05-20T04:26:16.552Z,12.15
2019-05-20T04:28:43.830Z,12.20
2019-05-20T04:31:11.119Z,12.27
2019-05-20T04:33:38.462Z,12.38
2019-05-20T04:36:05.884Z,12.43
2019-05-20T04:38:33.111Z,12.48
2019-05-20T04:41:00.430Z,12.55
2019-05-20T04:43:27.694Z,12.79
2019-05-20T04:45:55.171Z,12.76
2019-05-20T04:48:22.456Z,12.86
2019-05-20T04:50:49.736Z,12.95
2019-05-20T04:53:17.144Z,12.95
2019-05-20T04:55:44.931Z,13.13
2019-05-20T04:58:12.768Z,13.24
2019-05-20T05:01:10.595Z,13.27
2019-05-20T05:03:39.423Z,13.39
2019-05-20T05:06:06.937Z,13.53
2019-05-20T05:08:34.316Z,13.56
2019-05-20T05:11:01.713Z,13.60
2019-05-20T05:13:29.169Z,13.65
2019-05-20T05:15:56.586Z,13.84
2019-05-20T05:18:23.860Z,13.95
2019-05-20T05:20:51.203Z,14.04
2019-05-20T05:23:18.600Z,14.17
2019-05-20T05:25:45.848Z,14.33
2019-05-20T05:28:13.094Z,14.49
2019-05-20T05:30:40.368Z,14.69
2019-05-20T05:33:07.750Z,14.90
2019-05-20T05:35:35.076Z,15.15
2019-05-20T05:38:03.100Z,15.52
2019-05-20T05:40:31.188Z,15.62
2019-05-20T05:42:58.558Z,15.83
2019-05-20T05:45:29.984Z,16.05
2019-05-20T05:47:57.340Z,16.24
2019-05-20T05:50:24.576Z,16.39
2019-05-20T05:52:51.905Z,16.47
2019-05-20T05:55:19.201Z,16.52
2019-05-20T05:57:46.488Z,16.66
2019-05-20T06:00:13.809Z,16.91
2019-05-20T06:02:41.078Z,16.88
2019-05-20T06:05:08.532Z,16.90
2019-05-20T06:07:35.857Z,16.93
2019-05-20T06:10:03.436Z,16.80
2019-05-20T06:12:30.814Z,17.29
2019-05-20T06:14:58.149Z,17.37
2019-05-20T06:17:25.453Z,17.41
2019-05-20T06:19:52.769Z,17.43
2019-05-20T06:22:20.039Z,17.31
2019-05-20T06:24:47.450Z,17.50
2019-05-20T06:27:14.792Z,18.04
2019-05-20T06:29:42.235Z,18.52
2019-05-20T06:32:09.682Z,18.95
2019-05-20T06:34:36.998Z,19.28
2019-05-20T06:37:07.040Z,19.65
2019-05-20T06:39:34.847Z,19.76
2019-05-20T06:42:02.172Z,19.73
2019-05-20T06:44:29.520Z,19.84
2019-05-20T06:46:56.782Z,19.99
2019-05-20T06:49:24.066Z,19.96
2019-05-20T06:51:51.419Z,19.77
2019-05-20T06:54:18.834Z,19.81
2019-05-20T06:56:46.649Z,19.85
2019-05-20T06:59:14.153Z,19.68
2019-05-20T07:01:41.725Z,19.83
2019-05-20T07:04:09.146Z,19.47
2019-05-20T07:06:46.675Z,19.20
2019-05-20T07:09:05.777Z,19.42
2019-05-20T07:11:33.008Z,19.52
2019-05-20T07:14:00.420Z,19.55
2019-05-20T07:16:27.758Z,19.54
2019-05-20T07:18:55.179Z,19.32
2019-05-20T07:21:22.619Z,19.55
2019-05-20T07:23:52.413Z,19.48
2019-05-20T07:26:20.322Z,19.70
2019-05-20T07:28:47.681Z,20.01
2019-05-20T07:31:15.071Z,20.07
2019-05-20T07:33:42.484Z,20.06
2019-05-20T07:36:10.211Z,19.95
2019-05-20T07:38:37.656Z,20.28
2019-05-20T07:41:05.131Z,20.72
2019-05-20T07:43:32.535Z,21.23
2019-05-20T07:46:01.004Z,21.11
2019-05-20T07:48:28.659Z,21.28
2019-05-20T07:50:56.383Z,21.37
2019-05-20T07:53:24.020Z,21.44
2019-05-20T07:56:03.238Z,20.72
2019-05-20T07:58:33.719Z,20.51
2019-05-20T08:01:01.367Z,20.34
2019-05-20T08:03:31.731Z,20.15
2019-05-20T08:05:59.010Z,19.59
2019-05-20T08:08:26.396Z,19.28
2019-05-20T08:10:53.662Z,19.84
2019-05-20T08:13:21.034Z,20.30
2019-05-20T08:15:48.284Z,20.53
2019-05-20T08:18:15.910Z,20.49
2019-05-20T08:20:44.779Z,20.33
2019-05-20T08:23:12.072Z,20.25
2019-05-20T08:25:39.603Z,19.80
2019-05-20T08:28:07.017Z,19.83
2019-05-20T08:30:35.267Z,19.71
2019-05-20T08:33:02.715Z,19.73
2019-05-20T08:35:30.048Z,19.67
2019-05-20T08:37:57.389Z,19.51
2019-05-20T08:40:24.697Z,19.68
2019-05-20T08:42:52.110Z,19.64
2019-05-20T08:45:19.417Z,19.88
2019-05-20T08:47:46.714Z,19.11
2019-05-20T08:50:16.356Z,19.04
2019-05-20T08:52:44.534Z,18.58
2019-05-20T08:55:12.080Z,18.02
2019-05-20T08:57:39.424Z,17.76
2019-05-20T09:00:07.414Z,17.99
2019-05-20T09:02:34.783Z,17.92
2019-05-20T09:05:03.326Z,18.03
2019-05-20T09:07:30.975Z,18.39
2019-05-20T09:09:58.324Z,18.79
2019-05-20T09:12:25.728Z,19.12
2019-05-20T09:14:52.974Z,19.37
2019-05-20T09:17:20.214Z,19.41
2019-05-20T09:19:47.622Z,19.59
2019-05-20T09:22:15.118Z,19.56
2019-05-20T09:24:42.707Z,18.94
2019-05-20T09:27:10.289Z,19.78
2019-05-20T09:29:38.202Z,19.13
2019-05-20T09:32:05.759Z,18.89
2019-05-20T09:34:33.052Z,18.93
2019-05-20T09:37:00.560Z,19.04
2019-05-20T09:39:27.893Z,19.53
2019-05-20T09:41:55.341Z,19.93
2019-05-20T09:44:22.977Z,20.07
2019-05-20T09:46:50.305Z,20.32
2019-05-20T09:49:17.739Z,20.29
2019-05-20T09:51:45.159Z,20.13
2019-05-20T09:54:12.566Z,19.94
2019-05-20T09:56:39.888Z,20.44
2019-05-20T09:59:07.163Z,20.67
2019-05-20T10:01:34.518Z,20.63
2019-05-20T10:04:01.888Z,20.90
2019-05-20T10:06:29.195Z,21.12
2019-05-20T10:08:56.510Z,21.31
2019-05-20T10:11:23.968Z,20.85
2019-05-20T10:13:51.219Z,20.86
2019-05-20T10:16:18.497Z,21.04
2019-05-20T10:18:45.868Z,21.03
2019-05-20T10:21:13.184Z,21.12
2019-05-20T10:23:40.447Z,21.06
2019-05-20T10:26:07.784Z,21.65
2019-05-20T10:28:35.067Z,21.66
2019-05-20T10:31:02.339Z,22.05
2019-05-20T10:33:30.704Z,21.46
2019-05-20T10:35:59.155Z,20.78
2019-05-20T10:38:26.800Z,20.66
2019-05-20T10:40:55.427Z,21.66
2019-05-20T10:43:22.775Z,22.32
2019-05-20T10:45:50.045Z,22.15
2019-05-20T10:48:17.290Z,21.96
2019-05-20T10:50:44.583Z,21.75
2019-05-20T10:53:12.946Z,21.14
2019-05-20T10:55:40.316Z,21.91
2019-05-20T10:58:07.817Z,22.71
2019-05-20T11:00:36.177Z,23.23
2019-05-20T11:03:03.648Z,23.25
2019-05-20T11:05:31.014Z,22.32
2019-05-20T11:07:58.515Z,21.62
2019-05-20T11:10:25.752Z,21.49
2019-05-20T11:12:53.010Z,21.91
2019-05-20T11:15:20.267Z,22.58
2019-05-20T11:17:47.661Z,22.66
2019-05-20T11:20:15.169Z,22.56
2019-05-20T11:22:42.468Z,23.28
2019-05-20T11:25:10.133Z,22.68
2019-05-20T11:27:37.532Z,22.32
2019-05-20T11:30:05.583Z,22.84
2019-05-20T11:32:32.873Z,22.94
2019-05-20T11:35:00.340Z,22.80
2019-05-20T11:37:27.611Z,22.81
2019-05-20T11:39:54.905Z,22.46
2019-05-20T11:42:22.156Z,22.44
2019-05-20T11:44:49.481Z,22.52
2019-05-20T11:47:16.726Z,23.42
2019-05-20T11:49:45.118Z,23.26
2019-05-20T11:52:12.365Z,22.70
2019-05-20T11:54:39.671Z,22.94
2019-05-20T11:57:06.963Z,23.36
2019-05-20T11:59:34.408Z,22.75
2019-05-20T12:02:04.007Z,22.74
2019-05-20T12:04:30.950Z,22.65
2019-05-20T12:06:58.261Z,22.31
2019-05-20T12:11:52.446Z,22.28
2019-05-20T12:14:19.858Z,22.79
2019-05-20T12:16:47.169Z,22.92
2019-05-20T12:19:14.400Z,22.39
2019-05-20T12:21:41.753Z,22.76
2019-05-20T12:24:08.943Z,22.14
2019-05-20T12:26:37.320Z,22.29
2019-05-20T12:29:04.580Z,22.27
2019-05-20T12:31:31.828Z,22.44
2019-05-20T12:33:59.070Z,22.09
2019-05-20T12:36:26.324Z,22.49
2019-05-20T12:38:53.675Z,22.93
2019-05-20T12:41:21.000Z,22.37
2019-05-20T12:44:08.947Z,22.32
2019-05-20T12:46:17.579Z,22.46
2019-05-20T12:48:45.042Z,22.49
2019-05-20T12:51:14.530Z,22.81
2019-05-20T12:53:41.566Z,22.85
2019-05-20T12:56:09.186Z,22.59
2019-05-20T12:58:36.932Z,22.40
2019-05-20T13:01:04.428Z,21.97
2019-05-20T13:03:31.884Z,21.78
2019-05-20T13:05:59.348Z,21.78
2019-05-20T13:08:26.627Z,21.63
2019-05-20T13:10:53.953Z,21.96
2019-05-20T13:13:21.284Z,22.33
2019-05-20T13:15:48.616Z,22.30
2019-05-20T13:18:16.886Z,22.34
2019-05-20T13:20:44.145Z,22.65
2019-05-20T13:23:13.838Z,22.54
2019-05-20T13:25:40.736Z,22.40
2019-05-20T13:28:08.001Z,22.05
2019-05-20T13:30:35.283Z,21.94
2019-05-20T13:33:02.553Z,22.31
2019-05-20T13:35:29.826Z,23.28
2019-05-20T13:37:57.175Z,23.73
2019-05-20T13:40:24.567Z,23.56
2019-05-20T13:42:51.932Z,23.51
2019-05-20T13:45:19.341Z,23.48
2019-05-20T13:47:46.844Z,23.67
2019-05-20T13:50:14.305Z,24.28
2019-05-20T13:52:41.534Z,24.84
2019-05-20T13:55:08.831Z,25.29
2019-05-20T13:57:36.147Z,24.78
2019-05-20T14:00:03.577Z,25.11
2019-05-20T14:02:30.900Z,24.41
2019-05-20T14:04:58.191Z,24.18
2019-05-20T14:07:25.486Z,24.32
2019-05-20T14:09:52.737Z,24.17
2019-05-20T14:12:21.035Z,23.89
2019-05-20T14:14:48.347Z,23.34
2019-05-20T14:17:15.628Z,23.55
2019-05-20T14:19:42.860Z,22.69
2019-05-20T14:22:10.114Z,22.51
2019-05-20T14:24:37.379Z,22.63
2019-05-20T14:27:04.744Z,22.65
2019-05-20T14:29:31.991Z,22.11
2019-05-20T14:31:59.334Z,21.46
2019-05-20T14:34:26.607Z,21.36
2019-05-20T14:36:54.009Z,21.34
2019-05-20T14:39:21.343Z,21.40
2019-05-20T14:41:48.787Z,21.38
2019-05-20T14:44:16.069Z,21.48
2019-05-20T14:46:43.335Z,21.69
2019-05-20T14:49:10.584Z,21.70
2019-05-20T14:51:37.875Z,21.86
2019-05-20T14:54:05.159Z,22.04
2019-05-20T14:56:32.422Z,22.28
2019-05-20T14:58:59.647Z,22.67
2019-05-20T15:01:26.928Z,22.94
2019-05-20T15:03:54.316Z,23.21
2019-05-20T15:06:21.535Z,23.30
2019-05-20T15:08:48.806Z,22.66
2019-05-20T15:11:16.136Z,22.98
2019-05-20T15:13:43.427Z,22.93
2019-05-20T15:16:10.712Z,22.68
2019-05-20T15:18:38.070Z,22.59
2019-05-20T15:21:05.353Z,22.56
2019-05-20T15:23:32.740Z,22.35
2019-05-20T15:26:00.030Z,22.70
2019-05-20T15:28:27.278Z,23.22
2019-05-20T15:30:54.506Z,23.97
2019-05-20T15:33:21.782Z,24.14
2019-05-20T15:35:49.075Z,23.93
2019-05-20T15:38:16.352Z,24.12
2019-05-20T15:40:43.795Z,24.26
2019-05-20T15:43:11.343Z,24.31
2019-05-20T15:45:38.904Z,24.72
2019-05-20T15:48:06.141Z,25.01
2019-05-20T15:50:33.405Z,25.51
2019-05-20T15:53:01.811Z,25.19
2019-05-20T15:55:29.165Z,24.44
2019-05-20T15:57:56.455Z,23.10
2019-05-20T16:00:23.863Z,22.58
2019-05-20T16:02:51.143Z,21.94
2019-05-20T16:05:18.509Z,21.87
2019-05-20T16:07:46.157Z,21.61
2019-05-20T16:10:13.507Z,21.29
2019-05-20T16:12:41.024Z,21.13
2019-05-20T16:15:08.704Z,20.94
2019-05-20T16:17:37.511Z,20.53
2019-05-20T16:20:07.172Z,20.26
2019-05-20T16:22:34.520Z,20.07
2019-05-20T16:25:02.169Z,19.81
2019-05-20T16:27:32.859Z,19.48
2019-05-20T16:30:06.887Z,19.55
2019-05-20T16:32:37.964Z,19.55
2019-05-20T16:35:05.690Z,19.46
2019-05-20T16:37:35.790Z,19.54
2019-05-20T16:40:04.561Z,19.76
2019-05-20T16:42:34.715Z,20.05
2019-05-20T16:45:02.080Z,19.99
2019-05-20T16:47:32.342Z,19.27
2019-05-20T16:50:00.753Z,18.64
2019-05-20T16:52:29.658Z,17.70
2019-05-20T16:54:58.117Z,17.44
2019-05-20T16:57:25.674Z,17.31
2019-05-20T16:59:53.095Z,17.24
2019-05-20T17:02:23.479Z,17.23
2019-05-20T17:04:51.186Z,16.88
2019-05-20T17:07:19.255Z,16.79
2019-05-20T17:09:47.620Z,16.75
2019-05-20T17:12:16.046Z,16.63
2019-05-20T17:14:43.296Z,16.55
2019-05-20T17:17:10.561Z,16.51
2019-05-20T17:19:37.851Z,16.53
2019-05-20T17:22:05.985Z,16.43
2019-05-20T17:24:33.271Z,16.42
2019-05-20T17:27:00.548Z,16.55
2019-05-20T17:29:27.824Z,16.65
2019-05-20T17:31:55.169Z,16.68
2019-05-20T17:34:22.571Z,16.45
2019-05-20T17:36:49.858Z,16.38
2019-05-20T17:39:17.252Z,16.24
2019-05-20T17:41:46.932Z,16.12
2019-05-20T17:44:15.187Z,16.21
2019-05-20T17:46:43.514Z,16.19
2019-05-20T17:49:10.873Z,16.10
2019-05-20T17:51:38.147Z,15.65
2019-05-20T17:54:05.406Z,15.74
2019-05-20T17:56:36.123Z,15.71
2019-05-20T17:59:03.601Z,15.53
2019-05-20T18:01:31.136Z,15.33
2019-05-20T18:03:58.541Z,15.18
2019-05-20T18:06:26.140Z,14.62
2019-05-20T18:08:57.069Z,14.35
2019-05-20T18:11:24.302Z,14.18
2019-05-20T18:13:51.543Z,14.27
2019-05-20T18:16:18.752Z,14.41
2019-05-20T18:18:46.060Z,14.50
2019-05-20T18:21:13.349Z,14.72
2019-05-20T18:23:40.601Z,14.76
2019-05-20T18:26:07.892Z,14.96
2019-05-20T18:28:35.167Z,14.95
2019-05-20T18:31:02.477Z,14.99
2019-05-20T18:33:29.782Z,14.85
2019-05-20T18:35:57.398Z,15.03
2019-05-20T18:38:24.662Z,15.22
2019-05-20T18:40:51.993Z,15.32
2019-05-20T18:43:19.289Z,15.32
2019-05-20T18:45:46.670Z,15.37
2019-05-20T18:48:13.934Z,15.34
2019-05-20T18:50:41.174Z,15.52
2019-05-20T18:53:08.433Z,15.63
2019-05-20T18:55:35.690Z,15.82
2019-05-20T18:58:03.041Z,15.87
2019-05-20T19:00:30.393Z,15.71
2019-05-20T19:02:57.744Z,15.74
2019-05-20T19:05:25.036Z,15.74
2019-05-20T19:07:52.466Z,15.82
2019-05-20T19:10:21.115Z,15.87
2019-05-20T19:12:48.482Z,15.94
2019-05-20T19:15:16.023Z,15.95
2019-05-20T19:17:43.348Z,16.00
2019-05-20T19:20:10.689Z,15.99
2019-05-20T19:22:38.058Z,15.97
2019-05-20T19:25:06.849Z,16.05
2019-05-20T19:27:34.712Z,16.17
2019-05-20T19:30:02.223Z,16.25
2019-05-20T19:32:29.890Z,16.23
2019-05-20T19:34:57.461Z,16.18
2019-05-20T19:37:24.779Z,16.25
2019-05-20T19:42:11.944Z,16.24
2019-05-20T19:44:40.743Z,16.24
2019-05-20T19:47:08.198Z,16.32
2019-05-20T19:49:35.572Z,16.33
2019-05-20T19:52:02.989Z,16.27
2019-05-20T19:54:30.356Z,16.37
2019-05-20T19:56:59.994Z,16.38
2019-05-20T19:59:27.344Z,16.23
2019-05-20T20:01:54.754Z,16.40
2019-05-20T20:04:22.795Z,16.36
2019-05-20T20:06:50.189Z,16.36
2019-05-20T20:09:17.509Z,16.38
2019-05-20T20:11:44.899Z,16.45
2019-05-20T20:14:12.159Z,16.49
2019-05-20T20:16:41.049Z,16.47
2019-05-20T20:19:08.388Z,16.47
2019-05-20T20:21:35.671Z,16.40
2019-05-20T20:24:02.958Z,16.46
2019-05-20T20:28:44.703Z,16.47
2019-05-20T20:31:12.030Z,16.39
2019-05-20T20:33:40.453Z,16.46
2019-05-20T20:36:07.792Z,16.44
2019-05-20T20:38:35.485Z,16.49
2019-05-20T20:41:02.881Z,16.53
2019-05-20T20:43:32.199Z,16.56
2019-05-20T20:45:59.494Z,16.65
2019-05-20T20:48:27.883Z,16.65
2019-05-20T20:50:55.186Z,16.65
2019-05-20T20:53:22.434Z,16.62
2019-05-20T20:55:49.689Z,16.49
2019-05-20T20:58:16.908Z,16.42
2019-05-20T21:00:44.194Z,16.48
2019-05-20T21:03:11.462Z,16.50
2019-05-20T21:05:38.769Z,16.49
2019-05-20T21:08:05.986Z,16.41
2019-05-20T21:10:33.246Z,16.41
2019-05-20T21:13:01.603Z,16.41
2019-05-20T21:15:28.965Z,16.36
2019-05-20T21:17:56.246Z,16.32
2019-05-20T21:20:23.659Z,16.23
2019-05-20T21:22:52.029Z,16.24
2019-05-20T21:25:19.435Z,16.23
2019-05-20T21:27:46.721Z,16.18
2019-05-20T21:30:14.046Z,16.14
2019-05-20T21:32:41.334Z,16.18
2019-05-20T21:35:08.570Z,16.16
2019-05-20T21:37:36.006Z,16.15
2019-05-20T21:40:03.347Z,16.11
2019-05-20T21:42:30.693Z,16.05
2019-05-20T21:44:58.034Z,16.03
2019-05-20T21:47:25.301Z,16.04
2019-05-20T21:49:52.620Z,16.00
2019-05-20T21:52:19.858Z,15.89
2019-05-20T21:54:47.171Z,15.93
2019-05-20T21:57:14.432Z,15.93
2019-05-20T21:59:41.802Z,15.98
2019-05-20T22:04:29.795Z,15.93
2019-05-20T22:06:57.035Z,15.94
2019-05-20T22:09:24.280Z,15.90
2019-05-20T22:14:09.286Z,15.89
2019-05-20T22:16:37.007Z,15.90
2019-05-20T22:19:04.280Z,15.84
2019-05-20T22:21:38.568Z,15.85
2019-05-20T22:24:06.679Z,15.89
2019-05-20T22:26:33.991Z,15.94
2019-05-20T22:29:01.243Z,15.83
2019-05-20T22:31:28.542Z,15.80
2019-05-20T22:33:55.877Z,15.72
2019-05-20T22:38:40.335Z,15.63
2019-05-20T22:41:07.605Z,15.68
2019-05-20T22:43:34.875Z,15.76
2019-05-20T22:46:02.118Z,15.83
2019-05-20T22:48:29.442Z,15.68
2019-05-20T22:50:56.753Z,15.60
2019-05-20T22:53:24.015Z,15.44
2019-05-20T22:55:51.308Z,15.44
2019-05-20T22:58:18.769Z,15.41
2019-05-20T23:00:49.335Z,15.39
2019-05-20T23:03:17.399Z,15.29
2019-05-20T23:05:45.217Z,15.21
2019-05-20T23:08:13.330Z,15.21
2019-05-20T23:10:40.715Z,15.16
2019-05-20T23:13:08.058Z,15.12
2019-05-20T23:15:35.371Z,15.13
2019-05-20T23:18:02.613Z,15.09
2019-05-20T23:20:29.909Z,15.06
2019-05-20T23:22:57.179Z,15.04
2019-05-20T23:25:24.535Z,14.97
2019-05-20T23:27:51.928Z,14.95
2019-05-20T23:30:19.276Z,14.91
2019-05-20T23:32:46.714Z,14.92
2019-05-20T23:35:14.099Z,14.91
2019-05-20T23:37:41.612Z,14.94
2019-05-20T23:40:10.050Z,14.88
2019-05-20T23:42:37.378Z,14.92
2019-05-20T23:45:05.057Z,14.87
2019-05-20T23:47:32.436Z,14.82
2019-05-20T23:49:59.800Z,14.85
2019-05-20T23:52:27.184Z,14.85
2019-05-20T23:54:54.510Z,14.86
2019-05-20T23:57:21.972Z,14.86
2019-05-20T23:59:49.398Z,14.82
